sensor_id;sensor_type;location;lat;lon;timestamp;temperature;humidity
52024;DHT22;38038;45.922;13.604;2023-09-07T10:32:52;27.00;90.50
52024;DHT22;38038;45.922;13.604;2023-09-07T10:35:19;27.10;91.10
52024;DHT22;38038;45.922;13.604;2023-09-07T10:37:47;27.10;90.50
52024;DHT22;38038;45.922;13.604;2023-09-07T10:40:22;27.10;89.30
52024;DHT22;38038;45.922;13.604;2023-09-07T10:42:47;27.10;89.10
52024;DHT22;38038;45.922;13.604;2023-09-07T10:45:15;27.10;88.80
52024;DHT22;38038;45.922;13.604;2023-09-07T10:47:44;27.10;88.90
52024;DHT22;38038;45.922;13.604;2023-09-07T10:50:12;27.20;88.70
52024;DHT22;38038;45.922;13.604;2023-09-07T10:52:39;27.20;89.60
52024;DHT22;38038;45.922;13.604;2023-09-07T10:55:06;27.20;90.50
52024;DHT22;38038;45.922;13.604;2023-09-07T10:57:32;27.30;89.90
52024;DHT22;38038;45.922;13.604;2023-09-07T10:59:57;27.30;90.10
52024;DHT22;38038;45.922;13.604;2023-09-07T11:02:23;27.30;89.80
52024;DHT22;38038;45.922;13.604;2023-09-07T11:04:49;27.30;89.00
52024;DHT22;38038;45.922;13.604;2023-09-07T11:07:15;27.30;90.10
52024;DHT22;38038;45.922;13.604;2023-09-07T11:09:43;27.40;89.80
52024;DHT22;38038;45.922;13.604;2023-09-07T11:12:13;27.50;89.70
52024;DHT22;38038;45.922;13.604;2023-09-07T11:14:39;27.50;89.20
52024;DHT22;38038;45.922;13.604;2023-09-07T11:17:06;27.50;88.30
52024;DHT22;38038;45.922;13.604;2023-09-07T11:19:33;27.60;87.80
52024;DHT22;38038;45.922;13.604;2023-09-07T11:21:59;27.60;87.10
52024;DHT22;38038;45.922;13.604;2023-09-07T11:24:25;27.60;89.30
52024;DHT22;38038;45.922;13.604;2023-09-07T11:26:51;27.50;87.80
52024;DHT22;38038;45.922;13.604;2023-09-07T11:29:17;27.50;88.70
52024;DHT22;38038;45.922;13.604;2023-09-07T11:31:44;27.60;89.10
52024;DHT22;38038;45.922;13.604;2023-09-07T11:34:11;27.70;88.40
52024;DHT22;38038;45.922;13.604;2023-09-07T11:36:39;27.80;91.50
52024;DHT22;38038;45.922;13.604;2023-09-07T11:39:05;27.80;88.30
52024;DHT22;38038;45.922;13.604;2023-09-07T11:41:38;27.90;89.50
52024;DHT22;38038;45.922;13.604;2023-09-07T11:44:04;27.80;89.30
52024;DHT22;38038;45.922;13.604;2023-09-07T11:46:30;27.90;86.70
52024;DHT22;38038;45.922;13.604;2023-09-07T11:48:56;28.00;88.60
52024;DHT22;38038;45.922;13.604;2023-09-07T11:51:22;28.20;90.00
52024;DHT22;38038;45.922;13.604;2023-09-07T11:53:47;28.20;90.00
52024;DHT22;38038;45.922;13.604;2023-09-07T11:56:13;28.20;90.70
52024;DHT22;38038;45.922;13.604;2023-09-07T11:58:39;28.30;90.80
52024;DHT22;38038;45.922;13.604;2023-09-07T12:01:04;28.30;90.30
52024;DHT22;38038;45.922;13.604;2023-09-07T12:03:30;28.50;89.00
52024;DHT22;38038;45.922;13.604;2023-09-07T12:05:58;28.40;90.30
52024;DHT22;38038;45.922;13.604;2023-09-07T12:08:24;28.50;90.60
52024;DHT22;38038;45.922;13.604;2023-09-07T12:10:49;28.70;90.10
52024;DHT22;38038;45.922;13.604;2023-09-07T12:13:15;28.50;88.40
52024;DHT22;38038;45.922;13.604;2023-09-07T12:15:41;28.40;90.50
52024;DHT22;38038;45.922;13.604;2023-09-07T12:18:06;28.50;90.10
52024;DHT22;38038;45.922;13.604;2023-09-07T12:20:33;28.50;90.40
52024;DHT22;38038;45.922;13.604;2023-09-07T12:23:00;28.60;90.90
52024;DHT22;38038;45.922;13.604;2023-09-07T12:25:27;28.60;90.90
52024;DHT22;38038;45.922;13.604;2023-09-07T12:27:53;28.70;91.30
52024;DHT22;38038;45.922;13.604;2023-09-07T12:30:20;28.60;91.00
52024;DHT22;38038;45.922;13.604;2023-09-07T12:32:47;28.70;90.60
52024;DHT22;38038;45.922;13.604;2023-09-07T12:35:13;28.60;90.00
52024;DHT22;38038;45.922;13.604;2023-09-07T12:37:40;28.50;90.60
52024;DHT22;38038;45.922;13.604;2023-09-07T12:40:06;28.50;90.40
52024;DHT22;38038;45.922;13.604;2023-09-07T12:42:41;28.40;90.40
52024;DHT22;38038;45.922;13.604;2023-09-07T12:45:12;28.40;90.50
52024;DHT22;38038;45.922;13.604;2023-09-07T12:47:38;28.40;90.20
52024;DHT22;38038;45.922;13.604;2023-09-07T12:50:04;28.30;90.40
52024;DHT22;38038;45.922;13.604;2023-09-07T12:52:32;28.20;90.10
52024;DHT22;38038;45.922;13.604;2023-09-07T12:54:57;28.10;89.90
52024;DHT22;38038;45.922;13.604;2023-09-07T12:57:23;28.30;90.10
52024;DHT22;38038;45.922;13.604;2023-09-07T12:59:49;28.40;90.40
52024;DHT22;38038;45.922;13.604;2023-09-07T13:02:15;28.30;90.70
52024;DHT22;38038;45.922;13.604;2023-09-07T13:04:40;28.20;90.40
52024;DHT22;38038;45.922;13.604;2023-09-07T13:07:06;28.20;90.50
52024;DHT22;38038;45.922;13.604;2023-09-07T13:09:32;28.20;88.40
52024;DHT22;38038;45.922;13.604;2023-09-07T13:11:57;28.20;90.10
52024;DHT22;38038;45.922;13.604;2023-09-07T13:14:23;28.10;90.20
52024;DHT22;38038;45.922;13.604;2023-09-07T13:16:49;28.00;90.80
52024;DHT22;38038;45.922;13.604;2023-09-07T13:19:16;28.10;90.50
52024;DHT22;38038;45.922;13.604;2023-09-07T13:21:42;28.10;90.50
52024;DHT22;38038;45.922;13.604;2023-09-07T13:24:07;28.10;90.80
52024;DHT22;38038;45.922;13.604;2023-09-07T13:26:33;28.30;90.60
52024;DHT22;38038;45.922;13.604;2023-09-07T13:28:59;28.30;90.60
52024;DHT22;38038;45.922;13.604;2023-09-07T13:31:24;28.20;89.70
52024;DHT22;38038;45.922;13.604;2023-09-07T13:33:50;28.30;90.50
52024;DHT22;38038;45.922;13.604;2023-09-07T13:36:16;28.20;90.70
52024;DHT22;38038;45.922;13.604;2023-09-07T13:38:42;28.10;91.50
52024;DHT22;38038;45.922;13.604;2023-09-07T13:41:09;28.10;90.60
52024;DHT22;38038;45.922;13.604;2023-09-07T13:43:35;28.30;90.10
52024;DHT22;38038;45.922;13.604;2023-09-07T13:46:00;28.20;90.80
52024;DHT22;38038;45.922;13.604;2023-09-07T13:48:26;28.20;91.00
52024;DHT22;38038;45.922;13.604;2023-09-07T13:50:52;28.20;90.70
52024;DHT22;38038;45.922;13.604;2023-09-07T13:53:17;28.20;91.10
52024;DHT22;38038;45.922;13.604;2023-09-07T13:55:43;28.00;91.10
52024;DHT22;38038;45.922;13.604;2023-09-07T13:58:11;28.00;91.00
52024;DHT22;38038;45.922;13.604;2023-09-07T14:00:37;28.20;91.00
52024;DHT22;38038;45.922;13.604;2023-09-07T14:03:04;28.10;90.50
52024;DHT22;38038;45.922;13.604;2023-09-07T14:05:31;28.10;90.90
52024;DHT22;38038;45.922;13.604;2023-09-07T14:07:56;28.20;90.60
52024;DHT22;38038;45.922;13.604;2023-09-07T14:10:22;28.10;90.60
52024;DHT22;38038;45.922;13.604;2023-09-07T14:12:48;28.10;91.20
52024;DHT22;38038;45.922;13.604;2023-09-07T14:15:14;28.10;90.60
52024;DHT22;38038;45.922;13.604;2023-09-07T14:17:40;28.00;90.70
52024;DHT22;38038;45.922;13.604;2023-09-07T14:20:06;27.90;90.90
52024;DHT22;38038;45.922;13.604;2023-09-07T14:22:31;28.00;90.40
52024;DHT22;38038;45.922;13.604;2023-09-07T14:24:57;28.00;91.10
52024;DHT22;38038;45.922;13.604;2023-09-07T14:27:23;28.00;91.50
52024;DHT22;38038;45.922;13.604;2023-09-07T14:29:49;28.00;90.70
52024;DHT22;38038;45.922;13.604;2023-09-07T14:32:15;27.80;90.50
52024;DHT22;38038;45.922;13.604;2023-09-07T14:34:41;27.80;90.70
52024;DHT22;38038;45.922;13.604;2023-09-07T14:37:06;27.80;90.70
52024;DHT22;38038;45.922;13.604;2023-09-07T14:39:32;27.90;91.10
52024;DHT22;38038;45.922;13.604;2023-09-07T14:41:58;27.90;91.00
52024;DHT22;38038;45.922;13.604;2023-09-07T14:44:25;27.90;90.70
52024;DHT22;38038;45.922;13.604;2023-09-07T14:46:50;27.90;90.50
52024;DHT22;38038;45.922;13.604;2023-09-07T14:49:16;27.80;90.50
52024;DHT22;38038;45.922;13.604;2023-09-07T14:51:46;27.80;90.50
52024;DHT22;38038;45.922;13.604;2023-09-07T14:54:12;27.70;91.00
52024;DHT22;38038;45.922;13.604;2023-09-07T14:56:38;27.80;91.10
52024;DHT22;38038;45.922;13.604;2023-09-07T14:59:05;27.80;91.40
52024;DHT22;38038;45.922;13.604;2023-09-07T15:01:31;27.80;91.00
52024;DHT22;38038;45.922;13.604;2023-09-07T15:03:57;27.80;90.60
52024;DHT22;38038;45.922;13.604;2023-09-07T15:06:23;27.80;90.40
52024;DHT22;38038;45.922;13.604;2023-09-07T15:08:48;27.80;90.80
52024;DHT22;38038;45.922;13.604;2023-09-07T15:11:16;27.80;90.70
52024;DHT22;38038;45.922;13.604;2023-09-07T15:13:41;27.80;90.60
52024;DHT22;38038;45.922;13.604;2023-09-07T15:16:07;27.80;90.40
52024;DHT22;38038;45.922;13.604;2023-09-07T15:18:34;27.80;90.50
52024;DHT22;38038;45.922;13.604;2023-09-07T15:21:00;27.70;90.60
52024;DHT22;38038;45.922;13.604;2023-09-07T15:23:26;27.70;90.80
52024;DHT22;38038;45.922;13.604;2023-09-07T15:25:52;27.80;90.90
52024;DHT22;38038;45.922;13.604;2023-09-07T15:28:18;27.80;90.50
52024;DHT22;38038;45.922;13.604;2023-09-07T15:30:44;27.70;90.60
52024;DHT22;38038;45.922;13.604;2023-09-07T15:33:10;27.70;91.10
52024;DHT22;38038;45.922;13.604;2023-09-07T15:35:35;27.70;90.20
52024;DHT22;38038;45.922;13.604;2023-09-07T15:38:01;27.70;90.30
52024;DHT22;38038;45.922;13.604;2023-09-07T15:40:27;27.60;90.40
52024;DHT22;38038;45.922;13.604;2023-09-07T15:42:54;27.60;90.60
52024;DHT22;38038;45.922;13.604;2023-09-07T15:45:20;27.60;90.60
52024;DHT22;38038;45.922;13.604;2023-09-07T15:47:45;27.60;90.30
52024;DHT22;38038;45.922;13.604;2023-09-07T15:50:13;27.60;90.60
52024;DHT22;38038;45.922;13.604;2023-09-07T15:52:48;27.50;90.40
52024;DHT22;38038;45.922;13.604;2023-09-07T15:55:15;27.40;90.50
52024;DHT22;38038;45.922;13.604;2023-09-07T15:57:43;27.40;90.70
52024;DHT22;38038;45.922;13.604;2023-09-07T16:00:09;27.40;90.60
52024;DHT22;38038;45.922;13.604;2023-09-07T16:02:35;27.40;90.50
52024;DHT22;38038;45.922;13.604;2023-09-07T16:05:03;27.30;90.70
52024;DHT22;38038;45.922;13.604;2023-09-07T16:07:28;27.30;90.70
52024;DHT22;38038;45.922;13.604;2023-09-07T16:09:54;27.20;90.80
52024;DHT22;38038;45.922;13.604;2023-09-07T16:12:20;27.10;90.60
52024;DHT22;38038;45.922;13.604;2023-09-07T16:14:46;27.10;91.10
52024;DHT22;38038;45.922;13.604;2023-09-07T16:17:11;27.00;90.90
52024;DHT22;38038;45.922;13.604;2023-09-07T16:19:37;26.90;90.90
52024;DHT22;38038;45.922;13.604;2023-09-07T16:22:03;27.00;90.90
52024;DHT22;38038;45.922;13.604;2023-09-07T16:24:34;26.90;91.10
52024;DHT22;38038;45.922;13.604;2023-09-07T16:26:59;26.90;90.90
52024;DHT22;38038;45.922;13.604;2023-09-07T16:29:25;26.80;91.20
52024;DHT22;38038;45.922;13.604;2023-09-07T16:31:51;26.70;91.20
52024;DHT22;38038;45.922;13.604;2023-09-07T16:34:17;26.70;90.90
52024;DHT22;38038;45.922;13.604;2023-09-07T16:36:42;26.70;90.70
52024;DHT22;38038;45.922;13.604;2023-09-07T16:39:08;26.70;90.60
52024;DHT22;38038;45.922;13.604;2023-09-07T16:41:34;26.60;90.60
52024;DHT22;38038;45.922;13.604;2023-09-07T16:44:00;26.50;91.30
52024;DHT22;38038;45.922;13.604;2023-09-07T16:46:26;26.50;91.00
52024;DHT22;38038;45.922;13.604;2023-09-07T16:48:51;26.40;91.40
52024;DHT22;38038;45.922;13.604;2023-09-07T16:51:17;26.30;91.60
52024;DHT22;38038;45.922;13.604;2023-09-07T16:53:43;26.30;91.50
52024;DHT22;38038;45.922;13.604;2023-09-07T16:56:09;26.20;91.90
52024;DHT22;38038;45.922;13.604;2023-09-07T16:58:36;26.10;91.40
52024;DHT22;38038;45.922;13.604;2023-09-07T17:01:05;26.30;91.30
52024;DHT22;38038;45.922;13.604;2023-09-07T17:03:31;26.20;91.60
52024;DHT22;38038;45.922;13.604;2023-09-07T17:05:57;26.20;91.70
52024;DHT22;38038;45.922;13.604;2023-09-07T17:08:22;26.10;91.80
52024;DHT22;38038;45.922;13.604;2023-09-07T17:10:48;26.10;91.80
52024;DHT22;38038;45.922;13.604;2023-09-07T17:13:14;26.00;92.00
52024;DHT22;38038;45.922;13.604;2023-09-07T17:15:39;26.00;92.00
52024;DHT22;38038;45.922;13.604;2023-09-07T17:18:05;25.90;92.30
52024;DHT22;38038;45.922;13.604;2023-09-07T17:20:35;25.90;92.20
52024;DHT22;38038;45.922;13.604;2023-09-07T17:23:01;25.80;92.30
52024;DHT22;38038;45.922;13.604;2023-09-07T17:25:28;25.70;92.50
52024;DHT22;38038;45.922;13.604;2023-09-07T17:27:57;25.70;92.50
52024;DHT22;38038;45.922;13.604;2023-09-07T17:30:23;25.70;92.50
52024;DHT22;38038;45.922;13.604;2023-09-07T17:32:50;25.60;92.60
52024;DHT22;38038;45.922;13.604;2023-09-07T17:35:15;25.60;92.50
52024;DHT22;38038;45.922;13.604;2023-09-07T17:37:41;25.60;92.50
52024;DHT22;38038;45.922;13.604;2023-09-07T17:40:08;25.60;92.50
52024;DHT22;38038;45.922;13.604;2023-09-07T17:42:35;25.50;92.60
52024;DHT22;38038;45.922;13.604;2023-09-07T17:45:00;25.40;92.80
52024;DHT22;38038;45.922;13.604;2023-09-07T17:47:26;25.30;92.80
52024;DHT22;38038;45.922;13.604;2023-09-07T17:49:52;25.30;92.70
52024;DHT22;38038;45.922;13.604;2023-09-07T17:52:17;25.30;92.80
52024;DHT22;38038;45.922;13.604;2023-09-07T17:54:44;25.30;92.80
52024;DHT22;38038;45.922;13.604;2023-09-07T17:57:09;25.20;93.20
52024;DHT22;38038;45.922;13.604;2023-09-07T17:59:35;25.10;93.30
52024;DHT22;38038;45.922;13.604;2023-09-07T18:02:01;25.10;93.20
52024;DHT22;38038;45.922;13.604;2023-09-07T18:04:26;25.10;93.10
52024;DHT22;38038;45.922;13.604;2023-09-07T18:06:52;25.00;93.50
52024;DHT22;38038;45.922;13.604;2023-09-07T18:09:18;25.00;93.20
52024;DHT22;38038;45.922;13.604;2023-09-07T18:11:43;24.90;93.30
52024;DHT22;38038;45.922;13.604;2023-09-07T18:14:11;24.90;93.40
52024;DHT22;38038;45.922;13.604;2023-09-07T18:16:37;24.80;93.50
52024;DHT22;38038;45.922;13.604;2023-09-07T18:19:02;24.70;93.30
52024;DHT22;38038;45.922;13.604;2023-09-07T18:21:28;24.80;93.10
52024;DHT22;38038;45.922;13.604;2023-09-07T18:23:54;24.80;93.10
52024;DHT22;38038;45.922;13.604;2023-09-07T18:26:20;24.70;93.20
52024;DHT22;38038;45.922;13.604;2023-09-07T18:28:46;24.80;93.00
52024;DHT22;38038;45.922;13.604;2023-09-07T18:31:12;24.70;93.40
52024;DHT22;38038;45.922;13.604;2023-09-07T18:33:37;24.70;92.90
52024;DHT22;38038;45.922;13.604;2023-09-07T18:36:05;24.70;93.20
52024;DHT22;38038;45.922;13.604;2023-09-07T18:38:32;24.60;93.20
52024;DHT22;38038;45.922;13.604;2023-09-07T18:41:01;24.60;93.20
52024;DHT22;38038;45.922;13.604;2023-09-07T18:43:28;24.50;93.50
52024;DHT22;38038;45.922;13.604;2023-09-07T18:45:54;24.40;93.40
52024;DHT22;38038;45.922;13.604;2023-09-07T18:48:19;24.30;93.60
52024;DHT22;38038;45.922;13.604;2023-09-07T18:50:45;24.30;93.50
52024;DHT22;38038;45.922;13.604;2023-09-07T18:53:11;24.30;93.80
52024;DHT22;38038;45.922;13.604;2023-09-07T18:55:40;24.40;93.10
52024;DHT22;38038;45.922;13.604;2023-09-07T18:58:06;24.40;93.00
52024;DHT22;38038;45.922;13.604;2023-09-07T19:00:32;24.40;93.20
52024;DHT22;38038;45.922;13.604;2023-09-07T19:02:58;24.30;93.40
52024;DHT22;38038;45.922;13.604;2023-09-07T19:05:24;24.30;93.00
52024;DHT22;38038;45.922;13.604;2023-09-07T19:07:49;24.30;93.10
52024;DHT22;38038;45.922;13.604;2023-09-07T19:10:16;24.30;93.40
52024;DHT22;38038;45.922;13.604;2023-09-07T19:12:42;24.30;93.00
52024;DHT22;38038;45.922;13.604;2023-09-07T19:15:08;24.30;93.00
52024;DHT22;38038;45.922;13.604;2023-09-07T19:17:34;24.30;93.10
52024;DHT22;38038;45.922;13.604;2023-09-07T19:20:00;24.30;93.00
52024;DHT22;38038;45.922;13.604;2023-09-07T19:22:26;24.30;92.80
52024;DHT22;38038;45.922;13.604;2023-09-07T19:24:52;24.30;93.20
52024;DHT22;38038;45.922;13.604;2023-09-07T19:27:19;24.10;93.30
52024;DHT22;38038;45.922;13.604;2023-09-07T19:29:45;24.00;93.40
52024;DHT22;38038;45.922;13.604;2023-09-07T19:32:12;24.00;93.70
52024;DHT22;38038;45.922;13.604;2023-09-07T19:34:39;23.90;93.90
52024;DHT22;38038;45.922;13.604;2023-09-07T19:37:05;23.80;94.00
52024;DHT22;38038;45.922;13.604;2023-09-07T19:39:31;23.90;93.70
52024;DHT22;38038;45.922;13.604;2023-09-07T19:41:57;23.80;93.80
52024;DHT22;38038;45.922;13.604;2023-09-07T19:44:22;23.90;93.80
52024;DHT22;38038;45.922;13.604;2023-09-07T19:46:49;23.80;93.90
52024;DHT22;38038;45.922;13.604;2023-09-07T19:49:14;23.80;93.90
52024;DHT22;38038;45.922;13.604;2023-09-07T19:51:40;23.80;94.10
52024;DHT22;38038;45.922;13.604;2023-09-07T19:54:06;23.60;94.10
52024;DHT22;38038;45.922;13.604;2023-09-07T19:56:31;23.50;94.40
52024;DHT22;38038;45.922;13.604;2023-09-07T19:58:57;23.50;94.70
52024;DHT22;38038;45.922;13.604;2023-09-07T20:01:23;23.40;94.80
52024;DHT22;38038;45.922;13.604;2023-09-07T20:03:50;23.30;94.90
52024;DHT22;38038;45.922;13.604;2023-09-07T20:06:18;23.20;95.30
52024;DHT22;38038;45.922;13.604;2023-09-07T20:08:45;23.10;95.40
52024;DHT22;38038;45.922;13.604;2023-09-07T20:11:12;23.00;95.60
52024;DHT22;38038;45.922;13.604;2023-09-07T20:13:42;23.00;95.60
52024;DHT22;38038;45.922;13.604;2023-09-07T20:16:08;23.00;95.60
52024;DHT22;38038;45.922;13.604;2023-09-07T20:18:37;23.00;95.60
52024;DHT22;38038;45.922;13.604;2023-09-07T20:21:04;22.90;96.10
52024;DHT22;38038;45.922;13.604;2023-09-07T20:23:30;22.70;96.30
52024;DHT22;38038;45.922;13.604;2023-09-07T20:26:00;22.60;96.80
52024;DHT22;38038;45.922;13.604;2023-09-07T20:28:25;22.40;97.20
52024;DHT22;38038;45.922;13.604;2023-09-07T20:30:51;22.30;97.70
52024;DHT22;38038;45.922;13.604;2023-09-07T20:33:17;22.10;98.00
52024;DHT22;38038;45.922;13.604;2023-09-07T20:35:43;22.10;98.20
52024;DHT22;38038;45.922;13.604;2023-09-07T20:38:09;22.00;98.30
52024;DHT22;38038;45.922;13.604;2023-09-07T20:40:35;22.00;98.30
52024;DHT22;38038;45.922;13.604;2023-09-07T20:43:01;22.10;97.20
52024;DHT22;38038;45.922;13.604;2023-09-07T20:45:37;22.30;96.80
52024;DHT22;38038;45.922;13.604;2023-09-07T20:48:03;22.30;96.50
52024;DHT22;38038;45.922;13.604;2023-09-07T20:50:29;22.40;96.60
52024;DHT22;38038;45.922;13.604;2023-09-07T20:52:55;22.30;96.70
52024;DHT22;38038;45.922;13.604;2023-09-07T20:55:21;22.40;97.10
52024;DHT22;38038;45.922;13.604;2023-09-07T20:57:47;22.30;97.20
52024;DHT22;38038;45.922;13.604;2023-09-07T21:00:15;22.30;97.50
52024;DHT22;38038;45.922;13.604;2023-09-07T21:02:40;22.20;97.40
52024;DHT22;38038;45.922;13.604;2023-09-07T21:05:07;22.20;96.00
52024;DHT22;38038;45.922;13.604;2023-09-07T21:07:33;22.40;96.00
52024;DHT22;38038;45.922;13.604;2023-09-07T21:09:59;22.50;95.70
52024;DHT22;38038;45.922;13.604;2023-09-07T21:12:25;22.50;96.60
52024;DHT22;38038;45.922;13.604;2023-09-07T21:14:51;22.40;96.50
52024;DHT22;38038;45.922;13.604;2023-09-07T21:17:17;22.40;95.80
52024;DHT22;38038;45.922;13.604;2023-09-07T21:19:43;22.40;96.70
52024;DHT22;38038;45.922;13.604;2023-09-07T21:22:10;22.20;96.70
52024;DHT22;38038;45.922;13.604;2023-09-07T21:24:36;22.10;95.80
52024;DHT22;38038;45.922;13.604;2023-09-07T21:27:02;22.20;96.70
52024;DHT22;38038;45.922;13.604;2023-09-07T21:29:28;22.10;96.70
52024;DHT22;38038;45.922;13.604;2023-09-07T21:31:53;22.00;97.40
52024;DHT22;38038;45.922;13.604;2023-09-07T21:34:19;22.00;96.90
52024;DHT22;38038;45.922;13.604;2023-09-07T21:36:45;21.80;97.80
52024;DHT22;38038;45.922;13.604;2023-09-07T21:39:11;21.70;98.10
52024;DHT22;38038;45.922;13.604;2023-09-07T21:41:47;21.70;98.60
52024;DHT22;38038;45.922;13.604;2023-09-07T21:44:13;21.60;98.50
52024;DHT22;38038;45.922;13.604;2023-09-07T21:46:39;21.60;98.30
52024;DHT22;38038;45.922;13.604;2023-09-07T21:49:05;21.50;98.60
52024;DHT22;38038;45.922;13.604;2023-09-07T21:51:31;21.50;98.80
52024;DHT22;38038;45.922;13.604;2023-09-07T21:53:57;21.50;98.70
52024;DHT22;38038;45.922;13.604;2023-09-07T21:56:24;21.50;97.70
52024;DHT22;38038;45.922;13.604;2023-09-07T21:58:50;21.40;98.70
52024;DHT22;38038;45.922;13.604;2023-09-07T22:01:16;21.40;99.10
52024;DHT22;38038;45.922;13.604;2023-09-07T22:03:42;21.30;99.20
52024;DHT22;38038;45.922;13.604;2023-09-07T22:06:21;21.30;98.50
52024;DHT22;38038;45.922;13.604;2023-09-07T22:08:50;21.40;99.30
52024;DHT22;38038;45.922;13.604;2023-09-07T22:11:17;21.30;99.10
52024;DHT22;38038;45.922;13.604;2023-09-07T22:13:42;21.20;99.10
52024;DHT22;38038;45.922;13.604;2023-09-07T22:16:09;21.10;99.10
52024;DHT22;38038;45.922;13.604;2023-09-07T22:18:35;21.10;98.40
52024;DHT22;38038;45.922;13.604;2023-09-07T22:21:01;21.30;97.60
52024;DHT22;38038;45.922;13.604;2023-09-07T22:23:28;21.40;97.60
52024;DHT22;38038;45.922;13.604;2023-09-07T22:26:01;21.50;97.40
52024;DHT22;38038;45.922;13.604;2023-09-07T22:28:27;21.50;97.40
52024;DHT22;38038;45.922;13.604;2023-09-07T22:30:56;21.50;97.40
52024;DHT22;38038;45.922;13.604;2023-09-07T22:33:22;21.50;97.70
52024;DHT22;38038;45.922;13.604;2023-09-07T22:35:48;21.50;97.60
52024;DHT22;38038;45.922;13.604;2023-09-07T22:38:14;21.50;97.20
52024;DHT22;38038;45.922;13.604;2023-09-07T22:40:42;21.50;98.50
52024;DHT22;38038;45.922;13.604;2023-09-07T22:43:08;21.20;99.80
52024;DHT22;38038;45.922;13.604;2023-09-07T22:45:35;21.10;99.70
52024;DHT22;38038;45.922;13.604;2023-09-07T22:48:02;20.90;99.90
52024;DHT22;38038;45.922;13.604;2023-09-07T22:50:28;20.80;99.90
52024;DHT22;38038;45.922;13.604;2023-09-07T22:52:54;20.90;99.90
52024;DHT22;38038;45.922;13.604;2023-09-07T22:55:42;20.80;99.90
52024;DHT22;38038;45.922;13.604;2023-09-07T22:58:10;20.80;99.90
52024;DHT22;38038;45.922;13.604;2023-09-07T23:00:37;20.80;99.90
52024;DHT22;38038;45.922;13.604;2023-09-07T23:03:03;20.70;99.90
52024;DHT22;38038;45.922;13.604;2023-09-07T23:05:29;20.70;99.80
52024;DHT22;38038;45.922;13.604;2023-09-07T23:07:55;20.90;99.90
52024;DHT22;38038;45.922;13.604;2023-09-07T23:10:20;20.90;99.90
52024;DHT22;38038;45.922;13.604;2023-09-07T23:12:47;21.00;99.30
52024;DHT22;38038;45.922;13.604;2023-09-07T23:15:13;21.00;99.40
52024;DHT22;38038;45.922;13.604;2023-09-07T23:17:39;21.00;99.70
52024;DHT22;38038;45.922;13.604;2023-09-07T23:20:05;21.00;99.90
52024;DHT22;38038;45.922;13.604;2023-09-07T23:22:36;21.10;99.20
52024;DHT22;38038;45.922;13.604;2023-09-07T23:25:02;21.10;99.70
52024;DHT22;38038;45.922;13.604;2023-09-07T23:27:29;20.90;99.90
52024;DHT22;38038;45.922;13.604;2023-09-07T23:29:55;20.90;99.90
52024;DHT22;38038;45.922;13.604;2023-09-07T23:32:21;20.70;99.90
52024;DHT22;38038;45.922;13.604;2023-09-07T23:34:47;20.80;99.50
52024;DHT22;38038;45.922;13.604;2023-09-07T23:37:12;21.00;99.90
52024;DHT22;38038;45.922;13.604;2023-09-07T23:39:38;21.00;99.90
52024;DHT22;38038;45.922;13.604;2023-09-07T23:42:04;20.90;99.90
52024;DHT22;38038;45.922;13.604;2023-09-07T23:44:29;20.90;99.90
52024;DHT22;38038;45.922;13.604;2023-09-07T23:46:56;20.90;99.90
52024;DHT22;38038;45.922;13.604;2023-09-07T23:49:22;20.60;99.90
52024;DHT22;38038;45.922;13.604;2023-09-07T23:51:48;20.40;99.90
52024;DHT22;38038;45.922;13.604;2023-09-07T23:54:14;20.30;99.90
52024;DHT22;38038;45.922;13.604;2023-09-07T23:56:41;20.30;99.90
52024;DHT22;38038;45.922;13.604;2023-09-07T23:59:08;20.40;99.90
